createdAt,value
2018-11-14T00:00:37.827Z,9.07
2018-11-14T00:03:09.504Z,14.93
2018-11-14T00:05:38.257Z,9.40
2018-11-14T00:08:06.992Z,8.47
2018-11-14T00:10:35.604Z,13.27
2018-11-14T00:13:04.134Z,8.13
2018-11-14T00:15:32.736Z,11.73
2018-11-14T00:18:01.317Z,11.83
2018-11-14T00:20:31.599Z,8.73
2018-11-14T00:23:14.125Z,8.73
2018-11-14T00:25:42.752Z,11.50
2018-11-14T00:28:11.840Z,10.60
2018-11-14T00:30:41.578Z,17.07
2018-11-14T00:33:10.108Z,11.73
2018-11-14T00:35:38.775Z,9.87
2018-11-14T00:38:07.350Z,9.87
2018-11-14T00:40:35.904Z,12.23
2018-11-14T00:43:04.927Z,14.70
2018-11-14T00:45:33.488Z,15.40
2018-11-14T00:48:02.062Z,11.80
2018-11-14T00:50:30.705Z,10.73
2018-11-14T00:52:59.178Z,12.30
2018-11-14T00:55:27.791Z,10.23
2018-11-14T00:57:56.756Z,9.83
2018-11-14T01:00:26.042Z,12.67
2018-11-14T01:02:55.137Z,11.63
2018-11-14T01:05:23.747Z,8.00
2018-11-14T01:07:52.219Z,11.80
2018-11-14T01:10:21.791Z,8.77
2018-11-14T01:12:50.935Z,12.23
2018-11-14T01:15:20.683Z,13.13
2018-11-14T01:17:49.156Z,8.80
2018-11-14T01:20:18.729Z,8.83
2018-11-14T01:22:47.473Z,11.93
2018-11-14T01:25:16.716Z,14.80
2018-11-14T01:27:45.605Z,11.60
2018-11-14T01:30:17.191Z,12.33
2018-11-14T01:32:46.625Z,14.70
2018-11-14T01:35:15.890Z,10.47
2018-11-14T01:37:44.407Z,17.43
2018-11-14T01:40:21.577Z,14.70
2018-11-14T01:42:51.353Z,12.13
2018-11-14T01:45:19.951Z,9.80
2018-11-14T01:47:48.571Z,10.53
2018-11-14T01:50:17.251Z,10.90
2018-11-14T01:52:45.779Z,12.80
2018-11-14T01:55:15.576Z,9.33
2018-11-14T01:57:44.075Z,9.63
2018-11-14T02:04:14.326Z,11.67
2018-11-14T02:07:03.819Z,11.55
2018-11-14T02:09:33.243Z,10.07
2018-11-14T02:12:01.748Z,13.40
2018-11-14T02:14:48.162Z,11.30
2018-11-14T02:17:41.988Z,11.60
2018-11-14T02:23:13.796Z,12.83
2018-11-14T02:30:58.990Z,14.53
2018-11-14T02:33:48.422Z,13.60
2018-11-14T02:36:32.641Z,10.60
2018-11-14T02:39:23.037Z,13.93
2018-11-14T02:42:01.335Z,13.07
2018-11-14T02:44:34.525Z,12.00
2018-11-14T02:47:03.066Z,15.10
2018-11-14T02:49:32.606Z,16.10
2018-11-14T02:52:01.169Z,12.97
2018-11-14T02:54:29.738Z,11.87
2018-11-14T02:56:58.262Z,14.73
2018-11-14T02:59:26.775Z,12.43
2018-11-14T03:01:55.334Z,17.37
2018-11-14T03:04:23.817Z,9.67
2018-11-14T03:06:52.342Z,13.90
2018-11-14T03:09:20.955Z,10.73
2018-11-14T03:11:49.489Z,12.40
2018-11-14T03:14:24.622Z,17.03
2018-11-14T03:16:53.096Z,10.13
2018-11-14T03:19:21.592Z,11.57
2018-11-14T03:21:50.146Z,13.43
2018-11-14T03:24:18.686Z,13.03
2018-11-14T03:26:47.208Z,13.27
2018-11-14T03:29:15.757Z,16.07
2018-11-14T03:31:44.322Z,14.03
2018-11-14T03:34:12.836Z,15.10
2018-11-14T03:36:41.354Z,12.07
2018-11-14T03:39:10.365Z,12.60
2018-11-14T03:41:38.886Z,14.77
2018-11-14T03:44:07.540Z,13.80
2018-11-14T03:46:36.015Z,13.93
2018-11-14T03:49:04.699Z,14.10
2018-11-14T03:51:33.323Z,10.57
2018-11-14T03:54:01.849Z,12.00
2018-11-14T03:56:30.373Z,13.07
2018-11-14T03:58:58.936Z,11.73
2018-11-14T04:01:27.455Z,13.67
2018-11-14T04:03:55.956Z,11.80
2018-11-14T04:06:24.476Z,11.23
2018-11-14T04:08:52.988Z,14.90
2018-11-14T04:11:21.543Z,16.03
2018-11-14T04:13:50.056Z,15.33
2018-11-14T04:16:18.538Z,16.13
2018-11-14T04:18:47.058Z,13.70
2018-11-14T04:21:15.612Z,18.87
2018-11-14T04:23:49.368Z,18.17
2018-11-14T04:26:17.934Z,19.47
2018-11-14T04:28:47.021Z,22.20
2018-11-14T04:31:15.758Z,14.87
2018-11-14T04:33:44.659Z,19.50
2018-11-14T04:36:13.182Z,13.90
2018-11-14T04:38:41.738Z,18.93
2018-11-14T04:41:10.281Z,16.90
2018-11-14T04:43:38.753Z,16.40
2018-11-14T04:46:07.258Z,16.27
2018-11-14T04:48:35.840Z,14.83
2018-11-14T04:51:04.684Z,12.90
2018-11-14T04:53:33.209Z,10.77
2018-11-14T04:56:01.753Z,18.03
2018-11-14T04:58:30.255Z,18.67
2018-11-14T05:00:58.769Z,17.33
2018-11-14T05:03:27.347Z,17.70
2018-11-14T05:05:55.864Z,18.67
2018-11-14T05:08:24.422Z,37.00
2018-11-14T05:10:52.999Z,42.43
2018-11-14T05:13:21.526Z,45.97
2018-11-14T05:15:50.075Z,42.57
2018-11-14T05:18:18.609Z,22.63
2018-11-14T05:20:47.159Z,19.03
2018-11-14T05:23:15.667Z,23.30
2018-11-14T05:25:44.191Z,15.73
2018-11-14T05:28:12.717Z,23.67
2018-11-14T05:30:41.263Z,15.23
2018-11-14T05:33:09.817Z,15.60
2018-11-14T05:35:38.321Z,17.37
2018-11-14T05:38:06.840Z,17.53
2018-11-14T05:40:35.409Z,43.50
2018-11-14T05:43:04.056Z,45.33
2018-11-14T05:45:32.574Z,52.23
2018-11-14T05:48:01.108Z,106.40
2018-11-14T05:50:29.601Z,36.97
2018-11-14T05:52:58.088Z,27.67
2018-11-14T05:55:26.852Z,27.37
2018-11-14T05:57:55.430Z,27.07
2018-11-14T06:00:31.261Z,25.83
2018-11-14T06:03:00.854Z,24.83
2018-11-14T06:05:29.447Z,15.53
2018-11-14T06:07:57.941Z,21.57
2018-11-14T06:10:26.583Z,22.13
2018-11-14T06:12:56.430Z,17.80
2018-11-14T06:15:25.011Z,22.47
2018-11-14T06:17:54.514Z,108.53
2018-11-14T06:20:23.285Z,132.83
2018-11-14T06:22:52.418Z,91.07
2018-11-14T06:25:25.176Z,38.03
2018-11-14T06:27:55.597Z,39.63
2018-11-14T06:30:24.451Z,25.13
2018-11-14T06:32:53.654Z,16.87
2018-11-14T06:35:22.544Z,16.13
2018-11-14T06:37:51.841Z,16.10
2018-11-14T06:40:20.523Z,18.93
2018-11-14T06:42:49.102Z,18.73
2018-11-14T06:45:19.844Z,22.87
2018-11-14T06:47:49.472Z,24.50
2018-11-14T06:50:18.005Z,21.43
2018-11-14T06:52:47.587Z,16.47
2018-11-14T06:55:17.436Z,25.60
2018-11-14T06:57:46.012Z,20.73
2018-11-14T07:00:16.837Z,19.67
2018-11-14T07:02:46.319Z,24.20
2018-11-14T07:05:17.266Z,17.23
2018-11-14T07:07:46.231Z,21.60
2018-11-14T07:10:17.600Z,16.30
2018-11-14T07:12:46.244Z,22.63
2018-11-14T07:15:17.976Z,21.60
2018-11-14T07:17:47.126Z,23.37
2018-11-14T07:20:22.146Z,21.53
2018-11-14T07:22:51.726Z,22.40
2018-11-14T07:25:20.688Z,18.60
2018-11-14T07:27:49.353Z,26.80
2018-11-14T07:30:19.774Z,19.27
2018-11-14T07:32:50.754Z,24.43
2018-11-14T07:35:19.531Z,24.83
2018-11-14T07:39:00.702Z,26.70
2018-11-14T07:41:34.563Z,28.53
2018-11-14T07:44:03.151Z,26.00
2018-11-14T07:46:32.521Z,44.10
2018-11-14T07:49:01.370Z,31.77
2018-11-14T07:51:29.986Z,28.13
2018-11-14T07:53:58.803Z,26.33
2018-11-14T07:56:27.456Z,22.83
2018-11-14T07:58:56.092Z,27.03
2018-11-14T08:01:24.805Z,36.23
2018-11-14T08:03:53.336Z,25.70
2018-11-14T08:09:39.807Z,25.10
2018-11-14T08:12:08.480Z,26.07
2018-11-14T08:14:36.974Z,21.40
2018-11-14T08:17:05.574Z,22.33
2018-11-14T08:19:34.094Z,23.17
2018-11-14T08:22:02.560Z,19.47
2018-11-14T08:24:31.057Z,19.77
2018-11-14T08:26:59.594Z,26.40
2018-11-14T08:29:28.075Z,18.50
2018-11-14T08:31:56.604Z,19.77
2018-11-14T08:34:25.135Z,18.53
2018-11-14T08:36:53.613Z,24.83
2018-11-14T08:39:22.169Z,27.67
2018-11-14T08:41:50.631Z,20.07
2018-11-14T08:44:20.006Z,25.87
2018-11-14T08:46:48.516Z,26.87
2018-11-14T08:49:17.088Z,44.23
2018-11-14T08:51:45.642Z,36.17
2018-11-14T08:54:14.127Z,36.30
2018-11-14T08:56:42.708Z,37.13
2018-11-14T08:59:11.272Z,46.70
2018-11-14T09:01:39.915Z,49.97
2018-11-14T09:04:08.497Z,31.67
2018-11-14T09:06:37.012Z,34.83
2018-11-14T09:09:08.444Z,45.90
2018-11-14T09:11:37.009Z,31.67
2018-11-14T09:14:05.861Z,22.40
2018-11-14T09:16:34.366Z,23.77
2018-11-14T09:19:02.879Z,18.43
2018-11-14T09:21:31.363Z,21.97
2018-11-14T09:23:59.904Z,21.90
2018-11-14T09:26:28.407Z,22.50
2018-11-14T09:28:56.992Z,22.80
2018-11-14T09:31:25.565Z,20.87
2018-11-14T09:33:54.163Z,28.33
2018-11-14T09:36:22.662Z,26.07
2018-11-14T09:38:51.157Z,25.60
2018-11-14T09:41:19.783Z,20.97
2018-11-14T09:43:48.233Z,26.70
2018-11-14T09:46:16.737Z,21.77
2018-11-14T09:48:45.294Z,20.30
2018-11-14T09:51:13.843Z,16.97
2018-11-14T09:53:42.449Z,17.27
2018-11-14T09:56:11.046Z,18.67
2018-11-14T09:58:39.668Z,21.23
2018-11-14T10:01:08.202Z,25.57
2018-11-14T10:03:36.869Z,20.57
2018-11-14T10:06:09.506Z,21.07
2018-11-14T10:08:38.884Z,23.73
2018-11-14T10:11:07.364Z,25.70
2018-11-14T10:13:35.967Z,16.83
2018-11-14T10:16:04.499Z,22.23
2018-11-14T10:19:16.775Z,21.83
2018-11-14T10:22:00.911Z,18.67
2018-11-14T10:24:47.857Z,25.23
2018-11-14T10:27:16.952Z,18.13
2018-11-14T10:29:45.711Z,23.27
2018-11-14T10:32:14.327Z,20.03
2018-11-14T10:34:42.869Z,18.10
2018-11-14T10:37:11.396Z,25.90
2018-11-14T10:39:39.959Z,20.83
2018-11-14T10:42:08.527Z,19.37
2018-11-14T10:44:37.071Z,24.90
2018-11-14T10:47:05.659Z,17.33
2018-11-14T10:49:34.247Z,18.07
2018-11-14T10:52:02.760Z,18.03
2018-11-14T10:54:31.360Z,22.77
2018-11-14T10:56:59.924Z,21.93
2018-11-14T10:59:28.504Z,21.33
2018-11-14T11:02:02.460Z,25.33
2018-11-14T11:04:36.337Z,30.93
2018-11-14T11:07:10.358Z,42.40
2018-11-14T11:09:44.212Z,33.10
2018-11-14T11:12:18.149Z,25.47
2018-11-14T11:14:51.997Z,22.07
2018-11-14T11:17:25.665Z,17.43
2018-11-14T11:19:54.344Z,19.50
2018-11-14T11:22:29.615Z,16.93
2018-11-14T11:24:58.165Z,16.43
2018-11-14T11:27:26.647Z,19.17
2018-11-14T11:29:55.195Z,17.10
2018-11-14T11:32:23.738Z,17.47
2018-11-14T11:34:52.202Z,13.10
2018-11-14T11:37:20.740Z,15.93
2018-11-14T11:39:49.231Z,15.77
2018-11-14T11:42:17.792Z,14.63
2018-11-14T11:44:47.357Z,16.50
2018-11-14T11:47:15.858Z,16.77
2018-11-14T11:49:44.353Z,16.33
2018-11-14T11:52:12.850Z,19.40
2018-11-14T11:54:41.352Z,16.20
2018-11-14T11:57:09.818Z,14.73
2018-11-14T11:59:38.421Z,17.23
2018-11-14T12:02:06.998Z,13.03
2018-11-14T12:04:35.496Z,15.03
2018-11-14T12:07:04.567Z,18.57
2018-11-14T12:09:33.128Z,14.77
2018-11-14T12:12:01.739Z,16.13
2018-11-14T12:14:30.303Z,15.83
2018-11-14T12:16:58.890Z,13.57
2018-11-14T12:19:27.535Z,16.33
2018-11-14T12:21:56.096Z,17.33
2018-11-14T12:24:25.267Z,24.87
2018-11-14T12:27:28.376Z,14.37
2018-11-14T12:29:57.742Z,32.13
2018-11-14T12:32:26.351Z,16.37
2018-11-14T12:34:55.945Z,20.20
2018-11-14T12:37:24.475Z,17.47
2018-11-14T12:39:53.129Z,22.50
2018-11-14T12:42:21.885Z,23.07
2018-11-14T12:44:51.030Z,18.23
2018-11-14T12:47:19.825Z,19.17
2018-11-14T12:49:48.328Z,23.77
2018-11-14T12:52:16.825Z,24.07
2018-11-14T12:54:52.212Z,27.40
2018-11-14T12:57:20.783Z,23.70
2018-11-14T12:59:49.265Z,18.17
2018-11-14T13:02:18.169Z,24.87
2018-11-14T13:04:47.014Z,20.00
2018-11-14T13:07:15.536Z,26.10
2018-11-14T13:09:44.228Z,19.83
2018-11-14T13:12:12.815Z,25.80
2018-11-14T13:14:41.368Z,21.77
2018-11-14T13:17:09.911Z,16.97
2018-11-14T13:19:38.584Z,24.20
2018-11-14T13:22:07.646Z,23.53
2018-11-14T13:24:42.491Z,29.53
2018-11-14T13:27:11.369Z,25.37
2018-11-14T13:29:40.072Z,20.87
2018-11-14T13:32:08.791Z,24.07
2018-11-14T13:34:37.266Z,20.30
2018-11-14T13:37:05.970Z,24.30
2018-11-14T13:39:34.591Z,27.63
2018-11-14T13:42:03.458Z,26.47
2018-11-14T13:44:32.136Z,24.07
2018-11-14T13:47:00.764Z,16.43
2018-11-14T13:49:29.449Z,14.70
2018-11-14T13:54:42.495Z,26.27
2018-11-14T13:57:11.139Z,21.70
2018-11-14T13:59:39.777Z,14.73
2018-11-14T14:02:08.333Z,27.07
2018-11-14T14:04:36.838Z,21.97
2018-11-14T14:07:05.433Z,13.03
2018-11-14T14:09:34.078Z,12.60
2018-11-14T14:12:02.612Z,12.13
2018-11-14T14:14:31.090Z,15.23
2018-11-14T14:16:59.591Z,22.20
2018-11-14T14:19:28.118Z,15.77
2018-11-14T14:21:56.704Z,19.30
2018-11-14T14:24:25.276Z,13.17
2018-11-14T14:26:53.779Z,9.87
2018-11-14T14:29:22.620Z,13.10
2018-11-14T14:31:51.134Z,18.77
2018-11-14T14:34:19.656Z,12.30
2018-11-14T14:36:48.260Z,14.03
2018-11-14T14:39:16.781Z,17.50
2018-11-14T14:41:45.292Z,14.07
2018-11-14T14:44:13.767Z,10.03
2018-11-14T14:46:42.309Z,16.90
2018-11-14T14:49:10.903Z,19.23
2018-11-14T14:51:39.499Z,16.93
2018-11-14T14:54:08.083Z,17.40
2018-11-14T14:56:36.641Z,19.63
2018-11-14T14:59:05.487Z,19.77
2018-11-14T15:01:34.075Z,24.97
2018-11-14T15:04:03.263Z,30.03
2018-11-14T15:06:36.084Z,13.53
2018-11-14T15:09:06.974Z,13.53
2018-11-14T15:11:35.582Z,16.57
2018-11-14T15:14:04.713Z,20.10
2018-11-14T15:16:34.083Z,21.27
2018-11-14T15:19:02.699Z,17.50
2018-11-14T15:21:31.333Z,17.50
2018-11-14T15:23:59.815Z,20.87
2018-11-14T15:26:28.585Z,13.53
2018-11-14T15:28:57.264Z,18.93
2018-11-14T15:31:25.724Z,16.47
2018-11-14T15:33:54.428Z,22.83
2018-11-14T15:36:41.424Z,18.90
2018-11-14T15:39:11.707Z,20.43
2018-11-14T15:41:40.518Z,20.53
2018-11-14T15:44:09.187Z,20.40
2018-11-14T15:46:37.798Z,19.67
2018-11-14T15:49:06.407Z,21.93
2018-11-14T15:51:43.059Z,18.57
2018-11-14T15:54:11.535Z,20.70
2018-11-14T15:56:40.068Z,18.83
2018-11-14T15:59:08.645Z,24.93
2018-11-14T16:01:37.203Z,18.93
2018-11-14T16:04:06.206Z,20.10
2018-11-14T16:06:34.817Z,20.47
2018-11-14T16:09:03.788Z,26.93
2018-11-14T16:11:32.549Z,24.33
2018-11-14T16:14:01.261Z,18.40
2018-11-14T16:16:29.780Z,25.77
2018-11-14T16:18:58.373Z,20.37
2018-11-14T16:21:28.677Z,24.33
2018-11-14T16:23:57.141Z,19.43
2018-11-14T16:26:25.904Z,28.00
2018-11-14T16:28:54.429Z,23.07
2018-11-14T16:31:24.381Z,30.20
2018-11-14T16:33:53.333Z,19.07
2018-11-14T16:36:22.000Z,22.07
2018-11-14T16:38:50.528Z,26.27
2018-11-14T16:41:19.141Z,21.23
2018-11-14T16:43:47.757Z,19.13
2018-11-14T16:46:16.253Z,40.20
2018-11-14T16:48:45.795Z,23.40
2018-11-14T16:51:14.271Z,16.10
2018-11-14T16:53:42.812Z,20.40
2018-11-14T16:56:11.299Z,17.93
2018-11-14T16:58:39.967Z,23.13
2018-11-14T17:01:09.206Z,19.30
2018-11-14T17:03:37.772Z,21.60
2018-11-14T17:06:07.314Z,22.07
2018-11-14T17:08:35.866Z,22.20
2018-11-14T17:11:04.540Z,18.00
2018-11-14T17:13:33.145Z,24.93
2018-11-14T17:16:02.002Z,23.07
2018-11-14T17:18:30.696Z,22.50
2018-11-14T17:20:59.475Z,22.80
2018-11-14T17:23:28.101Z,20.80
2018-11-14T17:25:58.299Z,19.87
2018-11-14T17:28:26.843Z,25.40
2018-11-14T17:30:55.347Z,19.30
2018-11-14T17:33:24.289Z,19.13
2018-11-14T17:35:53.008Z,21.97
2018-11-14T17:38:21.498Z,19.87
2018-11-14T17:40:51.290Z,17.07
2018-11-14T17:43:19.972Z,21.57
2018-11-14T17:45:49.162Z,20.60
2018-11-14T17:48:18.043Z,24.87
2018-11-14T17:50:46.665Z,33.47
2018-11-14T17:55:53.016Z,20.80
2018-11-14T17:58:22.788Z,17.10
2018-11-14T18:00:52.754Z,27.17
2018-11-14T18:03:28.184Z,23.20
2018-11-14T18:05:59.502Z,23.07
2018-11-14T18:08:28.447Z,19.17
2018-11-14T18:10:56.918Z,27.63
2018-11-14T18:13:25.622Z,27.23
2018-11-14T18:15:54.307Z,25.00
2018-11-14T18:18:23.077Z,23.47
2018-11-14T18:20:51.741Z,23.60
2018-11-14T18:23:20.310Z,20.37
2018-11-14T18:25:49.324Z,21.20
2018-11-14T18:28:17.827Z,24.20
2018-11-14T18:30:48.265Z,21.00
2018-11-14T18:33:17.082Z,22.77
2018-11-14T18:35:45.793Z,22.30
2018-11-14T18:38:14.379Z,22.30
2018-11-14T18:40:43.168Z,20.97
2018-11-14T18:43:11.855Z,19.73
2018-11-14T18:45:41.967Z,22.03
2018-11-14T18:48:10.559Z,20.90
2018-11-14T18:50:39.243Z,20.80
2018-11-14T18:53:07.932Z,27.43
2018-11-14T18:55:50.405Z,23.67
2018-11-14T18:58:19.313Z,28.80
2018-11-14T19:00:47.865Z,31.30
2018-11-14T19:03:16.473Z,27.97
2018-11-14T19:05:45.105Z,29.27
2018-11-14T19:08:13.961Z,22.07
2018-11-14T19:10:43.174Z,22.07
2018-11-14T19:13:11.759Z,26.17
2018-11-14T19:15:40.338Z,20.30
2018-11-14T19:18:09.008Z,27.63
2018-11-14T19:20:37.577Z,28.13
2018-11-14T19:23:06.843Z,21.83
2018-11-14T19:25:36.459Z,32.67
2018-11-14T19:28:05.290Z,24.00
2018-11-14T19:30:35.678Z,22.60
2018-11-14T19:33:04.520Z,24.93
2018-11-14T19:35:33.071Z,23.83
2018-11-14T19:38:02.035Z,24.93
2018-11-14T19:40:32.008Z,29.57
2018-11-14T19:43:01.852Z,29.73
2018-11-14T19:45:33.037Z,22.80
2018-11-14T19:48:01.669Z,24.00
2018-11-14T19:50:30.311Z,27.67
2018-11-14T19:52:58.908Z,24.63
2018-11-14T19:55:28.104Z,29.03
2018-11-14T19:57:58.235Z,25.87
2018-11-14T20:00:34.627Z,29.83
2018-11-14T20:03:04.597Z,25.97
2018-11-14T20:05:33.195Z,29.43
2018-11-14T20:08:01.759Z,24.70
2018-11-14T20:10:32.650Z,20.27
2018-11-14T20:13:01.214Z,28.37
2018-11-14T20:15:32.086Z,22.47
2018-11-14T20:18:00.739Z,21.47
2018-11-14T20:20:30.666Z,22.73
2018-11-14T20:22:59.372Z,30.00
2018-11-14T20:25:28.207Z,30.53
2018-11-14T20:27:57.015Z,22.93
2018-11-14T20:30:27.102Z,24.90
2018-11-14T20:32:57.209Z,24.63
2018-11-14T20:35:26.631Z,21.73
2018-11-14T20:37:55.896Z,27.40
2018-11-14T20:40:26.187Z,24.53
2018-11-14T20:42:55.423Z,26.23
2018-11-14T20:45:26.149Z,23.87
2018-11-14T20:47:54.786Z,23.57
2018-11-14T20:50:24.356Z,26.33
2018-11-14T20:52:55.965Z,27.87
2018-11-14T20:55:24.695Z,24.37
2018-11-14T20:57:53.306Z,23.03
2018-11-14T21:00:29.791Z,24.83
2018-11-14T21:02:58.572Z,32.73
2018-11-14T21:05:28.960Z,26.53
2018-11-14T21:07:58.207Z,23.00
2018-11-14T21:10:29.168Z,23.40
2018-11-14T21:12:58.310Z,24.60
2018-11-14T21:15:28.419Z,30.53
2018-11-14T21:17:58.137Z,31.00
2018-11-14T21:20:26.713Z,23.37
2018-11-14T21:22:55.467Z,25.77
2018-11-14T21:25:24.856Z,31.03
2018-11-14T21:27:54.275Z,22.17
2018-11-14T21:30:24.319Z,27.93
2018-11-14T21:32:52.922Z,25.43
2018-11-14T21:35:25.012Z,24.77
2018-11-14T21:37:59.132Z,28.23
2018-11-14T21:40:28.001Z,24.30
2018-11-14T21:42:56.644Z,23.57
2018-11-14T21:45:26.887Z,29.00
2018-11-14T21:48:00.818Z,26.03
2018-11-14T21:50:30.305Z,26.97
2018-11-14T21:52:59.608Z,24.67
2018-11-14T21:55:28.135Z,28.30
2018-11-14T21:57:56.777Z,28.17
2018-11-14T22:00:31.410Z,24.83
2018-11-14T22:03:00.302Z,27.93
2018-11-14T22:08:31.611Z,23.00
2018-11-14T22:11:00.160Z,26.77
2018-11-14T22:13:28.756Z,24.57
2018-11-14T22:15:57.344Z,28.07
2018-11-14T22:18:25.981Z,25.83
2018-11-14T22:20:54.505Z,27.40
2018-11-14T22:23:23.116Z,29.60
2018-11-14T22:25:51.788Z,31.13
2018-11-14T22:28:20.670Z,30.50
2018-11-14T22:30:49.342Z,29.33
2018-11-14T22:33:17.900Z,30.90
2018-11-14T22:37:24.806Z,28.60
2018-11-14T22:39:53.592Z,26.20
2018-11-14T22:42:23.097Z,26.57
2018-11-14T22:44:52.712Z,28.10
2018-11-14T22:47:21.630Z,26.80
2018-11-14T22:49:50.128Z,24.80
2018-11-14T22:52:19.086Z,23.63
2018-11-14T22:54:47.674Z,28.17
2018-11-14T22:57:16.404Z,26.47
2018-11-14T22:59:44.974Z,32.93
2018-11-14T23:02:13.858Z,26.63
2018-11-14T23:04:42.654Z,28.70
2018-11-14T23:07:11.210Z,24.70
2018-11-14T23:09:39.755Z,26.73
2018-11-14T23:12:08.268Z,28.70
2018-11-14T23:14:37.734Z,28.07
2018-11-14T23:17:06.437Z,28.20
2018-11-14T23:19:35.007Z,23.90
2018-11-14T23:22:03.495Z,35.47
2018-11-14T23:24:32.082Z,26.23
2018-11-14T23:27:00.585Z,25.40
2018-11-14T23:29:29.151Z,29.03
2018-11-14T23:31:57.692Z,25.37
2018-11-14T23:34:26.187Z,27.83
2018-11-14T23:36:54.804Z,30.73
2018-11-14T23:39:23.461Z,28.47
2018-11-14T23:41:51.944Z,29.83
2018-11-14T23:44:20.464Z,32.60
2018-11-14T23:46:48.982Z,24.93
2018-11-14T23:49:17.492Z,27.60
2018-11-14T23:51:53.417Z,29.10
2018-11-14T23:54:21.905Z,29.03
2018-11-14T23:56:50.447Z,31.93
2018-11-14T23:59:19.046Z,35.53
